Time;durP1;ratioP1;P1;durP2;ratioP2;P2;SDS_P1;SDS_P2;PMS_P1;PMS_P2;Temp;Humidity;BMP_temperature;BMP_pressure;BME280_temperature;BME280_humidity;BME280_pressure;Samples;Min_cycle;Max_cycle;Signal;HPM_P1;HPM_P2
2024/01/10 00:02:06;;;;;;;4.13;1.97;;;;;;;-2.56;93.21;62636.59;5053407;28;20251;-53
2024/01/10 00:04:31;;;;;;;3.80;2.40;;;;;;;-2.34;95.37;62657.88;5071140;28;20658;-52
2024/01/10 00:06:57;;;;;;;2.73;1.90;;;;;;;-2.39;91.10;62654.94;5071157;28;20710;-52
2024/01/10 00:09:22;;;;;;;5.63;2.10;;;;;;;-2.46;95.47;62647.38;5070967;28;20199;-54
2024/01/10 00:11:48;;;;;;;3.40;2.10;;;;;;;-2.42;98.56;62651.69;5065645;22;20221;-51
2024/01/10 00:14:13;;;;;;;2.23;1.90;;;;;;;-2.47;96.16;62646.31;5071123;28;20196;-56
2024/01/10 00:16:39;;;;;;;5.30;2.73;;;;;;;-2.27;93.39;62667.34;5071430;28;20272;-52
2024/01/10 00:19:06;;;;;;;4.07;3.10;;;;;;;-2.24;94.83;62671.13;5071094;28;20683;-52
2024/01/10 00:21:32;;;;;;;4.33;2.80;;;;;;;-2.27;96.59;62664.91;5071333;28;20210;-53
2024/01/10 00:23:57;;;;;;;5.23;3.00;;;;;;;-2.22;95.71;62672.75;5070820;28;20192;-53
2024/01/10 00:26:23;;;;;;;5.37;2.77;;;;;;;-2.30;97.65;62661.66;5071225;28;20211;-52
2024/01/10 00:28:49;;;;;;;7.97;3.57;;;;;;;-2.37;95.76;62654.09;5070790;28;20670;-53
2024/01/10 00:31:14;;;;;;;5.73;3.00;;;;;;;-2.34;92.19;62660.34;5069751;28;20188;-52
2024/01/10 00:33:40;;;;;;;6.50;2.77;;;;;;;-2.42;97.04;62651.69;5070749;28;20683;-52
2024/01/10 00:36:07;;;;;;;4.97;2.57;;;;;;;-2.40;93.35;62653.84;5070726;28;20190;-51
2024/01/10 00:38:32;;;;;;;5.30;2.90;;;;;;;-2.40;93.46;62651.41;5070625;28;20203;-52
2024/01/10 00:40:58;;;;;;;3.87;2.10;;;;;;;-2.42;96.94;62651.69;5070850;28;20207;-52
2024/01/10 00:43:24;;;;;;;4.97;2.60;;;;;;;-2.48;98.16;62644.69;5069677;28;20234;-51
2024/01/10 00:45:49;;;;;;;5.77;2.53;;;;;;;-2.34;100.00;62659.81;5051147;28;20657;-53
2024/01/10 00:48:17;;;;;;;5.00;2.60;;;;;;;-2.47;95.92;62643.84;5052899;28;20211;-60
2024/01/10 00:50:46;;;;;;;2.87;2.00;;;;;;;-2.46;98.97;62647.38;5052441;28;20260;-58
2024/01/10 00:53:12;;;;;;;4.00;2.30;;;;;;;-2.43;99.48;62652.56;5070411;28;20678;-54
2024/01/10 00:55:37;;;;;;;4.77;2.40;;;;;;;-2.42;94.83;62651.19;5052642;28;20248;-55
2024/01/10 00:58:03;;;;;;;4.30;2.03;;;;;;;-2.33;94.80;62661.44;5070377;28;20250;-52
2024/01/10 01:00:28;;;;;;;3.70;2.40;;;;;;;-2.29;89.83;62662.72;5070645;28;20202;-52
2024/01/10 01:02:55;;;;;;;4.77;2.43;;;;;;;-2.33;91.36;62658.41;5070547;28;20603;-52
2024/01/10 01:05:20;;;;;;;5.13;2.73;;;;;;;-2.31;90.84;62661.13;5070432;28;20219;-53
2024/01/10 01:07:46;;;;;;;2.77;1.73;;;;;;;-2.20;93.49;62674.94;5070334;28;20211;-52
2024/01/10 01:10:12;;;;;;;3.63;1.70;;;;;;;-2.13;92.01;62683.03;5070346;28;20250;-51
2024/01/10 01:12:37;;;;;;;3.67;2.17;;;;;;;-2.29;92.44;62665.19;5070290;28;20200;-53
2024/01/10 01:15:03;;;;;;;3.63;2.00;;;;;;;-2.23;89.61;62674.69;5052252;28;20188;-51
2024/01/10 01:17:29;;;;;;;5.20;2.23;;;;;;;-2.33;89.91;62658.41;5070122;28;20238;-52
2024/01/10 01:19:55;;;;;;;2.90;1.80;;;;;;;-2.35;89.75;62656.25;5052189;28;20192;-53
2024/01/10 01:22:20;;;;;;;3.10;1.83;;;;;;;-2.33;88.34;62661.44;5052173;28;20216;-51
2024/01/10 01:24:46;;;;;;;4.93;3.13;;;;;;;-2.36;93.30;62655.72;5070250;28;20192;-52
2024/01/10 01:27:13;;;;;;;3.87;2.17;;;;;;;-2.14;89.86;62679.47;5069988;28;20208;-51
2024/01/10 01:29:38;;;;;;;10.27;4.70;;;;;;;-2.12;92.85;62683.56;5069958;28;20317;-52
2024/01/10 01:32:04;;;;;;;3.93;3.17;;;;;;;-3.13;96.05;62575.09;5069882;28;20259;-51
2024/01/10 01:34:30;;;;;;;3.47;2.30;;;;;;;-3.45;100.00;62544.13;5052035;28;20215;-54
2024/01/10 01:36:56;;;;;;;4.40;2.43;;;;;;;-3.24;99.38;62565.69;5051866;28;20566;-54
2024/01/10 01:39:21;;;;;;;4.07;2.77;;;;;;;-2.93;100.00;62596.69;5069864;28;20259;-53
2024/01/10 01:41:48;;;;;;;4.90;2.47;;;;;;;-2.61;96.75;62631.72;5069824;28;20230;-52
2024/01/10 01:44:13;;;;;;;4.50;2.33;;;;;;;-2.37;93.97;62657.09;5070924;28;20778;-52
2024/01/10 01:46:42;;;;;;;4.83;2.50;;;;;;;-3.08;95.65;62581.03;5055329;28;20208;-52
2024/01/10 01:49:10;;;;;;;2.30;2.07;;;;;;;-3.62;100.00;62523.34;5073121;28;20179;-52
2024/01/10 01:51:37;;;;;;;4.57;2.20;;;;;;;-3.46;100.00;62540.59;5073105;28;20195;-51
2024/01/10 01:54:06;;;;;;;6.50;2.00;;;;;;;-3.73;100.00;62516.41;5073333;28;20190;-53
2024/01/10 01:56:32;;;;;;;4.23;2.13;;;;;;;-3.15;97.94;62572.94;5080247;22;20311;-52
2024/01/10 01:58:58;;;;;;;5.40;2.10;;;;;;;-3.51;98.88;62537.09;5073077;28;20269;-52
2024/01/10 02:01:23;;;;;;;6.17;2.77;;;;;;;-3.86;100.00;62496.94;5072471;28;20194;-51
2024/01/10 02:03:49;;;;;;;2.67;2.30;;;;;;;-4.16;100.00;62467.06;5072715;28;20199;-54
2024/01/10 02:06:15;;;;;;;6.57;2.30;;;;;;;-3.94;100.00;62490.78;5072997;28;20255;-53
2024/01/10 02:08:40;;;;;;;3.93;2.20;;;;;;;-3.99;100.00;62483.47;5055071;28;20278;-52
2024/01/10 02:11:06;;;;;;;3.37;2.20;;;;;;;-4.08;100.00;62475.69;5055047;28;20199;-54
2024/01/10 02:13:33;;;;;;;5.47;2.20;;;;;;;-4.18;100.00;62462.47;5073096;28;20231;-52
2024/01/10 02:15:59;;;;;;;3.97;2.30;;;;;;;-4.16;100.00;62464.59;5054841;28;20284;-55
2024/01/10 02:18:24;;;;;;;5.13;2.63;;;;;;;-4.24;100.00;62458.97;5072842;28;20640;-52
2024/01/10 02:20:51;;;;;;;3.13;1.90;;;;;;;-3.97;100.00;62483.16;5054792;28;20286;-55
2024/01/10 02:23:17;;;;;;;3.10;2.33;;;;;;;-3.80;100.00;62503.94;5072692;28;20207;-53
2024/01/10 02:25:43;;;;;;;4.23;2.50;;;;;;;-3.94;100.00;62488.84;5054596;28;20201;-53
2024/01/10 02:28:09;;;;;;;2.63;1.63;;;;;;;-3.75;100.00;62509.31;5080123;22;20231;-51
2024/01/10 02:30:35;;;;;;;3.40;1.90;;;;;;;-4.16;100.00;62465.13;5072417;28;20184;-52
2024/01/10 02:33:01;;;;;;;3.07;2.70;;;;;;;-4.14;100.00;62466.75;5072678;28;20208;-52
2024/01/10 02:35:26;;;;;;;5.80;2.50;;;;;;;-3.71;100.00;62513.09;5054632;28;20233;-51
2024/01/10 02:37:54;;;;;;;4.00;2.60;;;;;;;-3.72;100.00;62512.56;5054467;28;20786;-56
2024/01/10 02:40:20;;;;;;;4.33;2.30;;;;;;;-3.41;100.00;62543.50;5072332;28;20180;-53
2024/01/10 02:42:45;;;;;;;4.50;1.80;;;;;;;-3.33;100.00;62553.53;5072717;28;20208;-52
2024/01/10 02:45:12;;;;;;;5.80;2.23;;;;;;;-3.10;100.00;62578.31;5072437;28;20177;-53
2024/01/10 02:47:38;;;;;;;4.60;2.93;;;;;;;-3.13;99.83;62580.03;5072109;28;20685;-53
2024/01/10 02:50:09;;;;;;;4.63;2.70;;;;;;;-3.82;100.00;62501.25;5072480;28;20227;-53
2024/01/10 02:52:34;;;;;;;3.87;2.07;;;;;;;-3.93;100.00;62492.38;5054149;28;20211;-55
2024/01/10 02:55:00;;;;;;;2.50;2.27;;;;;;;-3.65;100.00;62520.09;5053514;28;20302;-57
2024/01/10 02:57:25;;;;;;;3.07;2.20;;;;;;;-3.39;100.00;62547.59;5054688;28;20216;-56
2024/01/10 02:59:51;;;;;;;3.13;2.27;;;;;;;-3.35;100.00;62554.38;5072338;28;20201;-54
2024/01/10 03:02:16;;;;;;;2.13;1.87;;;;;;;-3.15;100.00;62570.47;5072244;28;20266;-54
2024/01/10 03:04:44;;;;;;;4.53;2.33;;;;;;;-3.39;100.00;62547.06;5072038;28;20216;-55
2024/01/10 03:07:10;;;;;;;3.53;2.50;;;;;;;-3.48;100.00;62537.91;5072340;28;20223;-53
2024/01/10 03:09:36;;;;;;;4.47;2.37;;;;;;;-2.95;99.82;62590.13;5072125;28;20220;-56
2024/01/10 03:12:02;;;;;;;4.00;2.70;;;;;;;-3.11;99.23;62574.78;5072137;28;20269;-54
2024/01/10 03:14:27;;;;;;;4.00;2.43;;;;;;;-3.25;100.00;62560.22;5071950;28;20192;-53
2024/01/10 03:16:53;;;;;;;3.77;2.73;;;;;;;-3.14;99.72;62574.56;5071928;28;20221;-53
2024/01/10 03:19:19;;;;;;;4.03;2.77;;;;;;;-3.34;100.00;62552.44;5070754;28;20177;-53
2024/01/10 03:21:44;;;;;;;5.87;3.47;;;;;;;-3.09;97.82;62579.94;5069378;28;20210;-54
2024/01/10 03:24:10;;;;;;;3.50;2.73;;;;;;;-3.38;99.75;62548.69;5071724;28;20193;-54
2024/01/10 03:26:36;;;;;;;6.03;2.93;;;;;;;-3.09;98.75;62576.94;5071816;28;20626;-56
2024/01/10 03:29:01;;;;;;;5.60;3.10;;;;;;;-2.98;96.40;62591.81;5071867;28;20617;-55
2024/01/10 03:31:30;;;;;;;7.43;2.97;;;;;;;-3.07;96.20;62584.03;5071559;28;20231;-53
2024/01/10 03:33:58;;;;;;;7.03;2.97;;;;;;;-3.45;96.86;62541.66;5071759;28;20208;-53
2024/01/10 03:36:24;;;;;;;4.40;2.90;;;;;;;-3.72;99.28;62515.03;5071447;28;20206;-52
2024/01/10 03:38:50;;;;;;;6.23;3.10;;;;;;;-3.73;100.00;62511.47;5070804;28;20212;-51
2024/01/10 03:41:19;;;;;;;6.53;3.33;;;;;;;-3.67;100.00;62519.84;5071659;28;20191;-52
2024/01/10 03:43:45;;;;;;;7.43;3.70;;;;;;;-3.76;100.00;62508.25;5053484;28;20736;-53
2024/01/10 03:46:13;;;;;;;2.57;2.07;;;;;;;-3.81;100.00;62502.31;5071369;28;20186;-52
2024/01/10 03:48:47;;;;;;;4.37;3.03;;;;;;;-4.14;100.00;62466.75;5053642;28;20224;-54
2024/01/10 03:51:17;;;;;;;7.20;2.67;;;;;;;-3.92;100.00;62490.47;5071828;28;20624;-51
2024/01/10 03:53:42;;;;;;;3.57;2.63;;;;;;;-3.82;100.00;62501.78;5071234;28;20215;-53
2024/01/10 03:56:10;;;;;;;3.63;2.50;;;;;;;-3.97;100.00;62485.63;5053848;28;20275;-54
2024/01/10 03:58:35;;;;;;;3.30;2.33;;;;;;;-3.69;100.00;62513.34;5053469;28;20214;-53
2024/01/10 04:01:09;;;;;;;4.90;2.83;;;;;;;-3.81;100.00;62502.84;5071193;28;20194;-51
2024/01/10 04:03:36;;;;;;;6.47;2.47;;;;;;;-3.67;100.00;62517.94;5053128;28;20274;-52
2024/01/10 04:06:02;;;;;;;6.13;2.97;;;;;;;-3.92;98.07;62491.00;5070727;28;20245;-52
2024/01/10 04:08:28;;;;;;;3.57;2.50;;;;;;;-3.87;99.91;62498.84;5036514;28;20217;-55
2024/01/10 04:10:53;;;;;;;4.80;2.80;;;;;;;-3.69;98.89;62513.34;5071065;28;20194;-52
2024/01/10 04:13:19;;;;;;;3.97;2.07;;;;;;;-3.65;98.55;62517.09;5051498;28;20768;-52
2024/01/10 04:15:45;;;;;;;2.30;2.00;;;;;;;-3.55;99.07;62530.88;5052210;28;20183;-54
2024/01/10 04:18:10;;;;;;;3.97;2.47;;;;;;;-3.49;98.84;62536.81;5052932;28;20299;-53
2024/01/10 04:20:36;;;;;;;3.13;2.07;;;;;;;-3.49;99.11;62539.25;5070876;28;20218;-53
2024/01/10 04:23:02;;;;;;;3.07;2.47;;;;;;;-3.88;98.99;62495.31;5059918;22;20224;-53
2024/01/10 04:25:27;;;;;;;4.27;2.30;;;;;;;-4.03;100.00;62479.16;5070722;28;20186;-55
2024/01/10 04:27:53;;;;;;;5.60;2.60;;;;;;;-4.01;100.00;62481.31;5071130;28;20222;-59
2024/01/10 04:30:19;;;;;;;4.57;2.53;;;;;;;-4.22;100.00;62458.16;5070754;28;20239;-53
2024/01/10 04:32:45;;;;;;;3.03;2.50;;;;;;;-4.06;100.00;62475.91;5070992;28;20216;-55
2024/01/10 04:35:11;;;;;;;7.27;3.20;;;;;;;-4.14;100.00;62469.22;5052926;28;20195;-54
2024/01/10 04:37:37;;;;;;;6.03;2.23;;;;;;;-4.37;100.00;62443.06;5070994;28;20293;-55
2024/01/10 04:40:03;;;;;;;5.53;3.13;;;;;;;-3.79;100.00;62505.00;5070776;28;20180;-52
2024/01/10 04:42:30;;;;;;;4.27;2.60;;;;;;;-3.45;100.00;62541.66;5070238;28;20282;-52
2024/01/10 04:44:56;;;;;;;3.13;2.27;;;;;;;-3.72;100.00;62514.47;5070889;28;20191;-54
2024/01/10 04:47:21;;;;;;;6.93;2.47;;;;;;;-4.08;100.00;62470.78;5070390;28;20729;-54
2024/01/10 04:49:47;;;;;;;3.07;2.60;;;;;;;-3.76;100.00;62508.25;5070769;28;20191;-52
2024/01/10 04:52:12;;;;;;;5.73;2.83;;;;;;;-3.54;100.00;62531.97;5070889;28;20217;-52
2024/01/10 04:54:38;;;;;;;4.77;2.70;;;;;;;-3.33;100.00;62553.53;5052618;28;20184;-52
2024/01/10 04:57:04;;;;;;;6.97;3.00;;;;;;;-3.09;99.34;62582.41;5070642;28;20215;-53
2024/01/10 04:59:30;;;;;;;4.23;2.20;;;;;;;-2.96;96.54;62593.44;5070339;28;20187;-52
2024/01/10 05:01:56;;;;;;;4.93;2.73;;;;;;;-2.92;97.81;62600.22;5070326;28;20216;-52
2024/01/10 05:04:21;;;;;;;4.07;2.40;;;;;;;-3.10;92.42;62578.31;5070406;28;20187;-53
2024/01/10 05:06:47;;;;;;;8.13;2.70;;;;;;;-2.87;98.37;62603.66;5052172;28;20208;-54
2024/01/10 05:09:13;;;;;;;4.67;2.60;;;;;;;-2.94;94.53;62595.59;5070481;28;20181;-53
2024/01/10 05:11:38;;;;;;;6.60;3.30;;;;;;;-2.86;95.94;62604.22;5070315;28;20706;-54
2024/01/10 05:14:04;;;;;;;5.37;2.70;;;;;;;-2.91;95.02;62599.34;5070260;28;20193;-54
2024/01/10 05:16:30;;;;;;;4.70;2.77;;;;;;;-2.79;96.38;62609.31;5052180;28;20198;-53
2024/01/10 05:19:00;;;;;;;4.70;2.40;;;;;;;-2.83;95.92;62605.00;5073258;28;20193;-56
2024/01/10 05:21:26;;;;;;;5.57;3.03;;;;;;;-2.82;92.89;62606.06;5073540;28;20194;-52
2024/01/10 05:23:52;;;;;;;5.80;2.37;;;;;;;-2.97;93.89;62587.97;5073707;28;20267;-53
2024/01/10 05:26:17;;;;;;;5.50;3.43;;;;;;;-3.26;92.78;62561.06;5073778;28;20672;-54
2024/01/10 05:28:43;;;;;;;6.33;2.53;;;;;;;-3.49;92.28;62534.34;5055665;28;20213;-55
2024/01/10 05:31:09;;;;;;;5.07;3.00;;;;;;;-3.50;94.42;62533.28;5072412;28;20221;-53
2024/01/10 05:33:35;;;;;;;6.03;2.83;;;;;;;-3.41;92.07;62543.50;5072242;28;20253;-54
2024/01/10 05:36:00;;;;;;;4.93;2.83;;;;;;;-3.51;91.07;62537.66;5072809;28;20247;-53
2024/01/10 05:38:26;;;;;;;2.83;2.40;;;;;;;-3.54;93.06;62531.97;5054757;28;20219;-54
2024/01/10 05:40:51;;;;;;;4.90;2.23;;;;;;;-3.32;90.03;62554.59;5073354;28;20242;-53
2024/01/10 05:43:17;;;;;;;2.27;1.90;;;;;;;-3.41;89.18;62545.44;5073341;28;20301;-53
2024/01/10 05:45:42;;;;;;;5.40;2.80;;;;;;;-3.19;90.32;62566.69;5072807;28;20690;-52
2024/01/10 05:48:08;;;;;;;5.47;2.70;;;;;;;-3.04;88.14;62584.81;5055191;28;20300;-53
2024/01/10 05:50:35;;;;;;;3.73;2.60;;;;;;;-3.37;88.95;62552.19;5073158;28;20673;-54
2024/01/10 05:53:00;;;;;;;6.40;3.07;;;;;;;-3.35;89.59;62551.38;5073266;28;20300;-54
2024/01/10 05:55:26;;;;;;;3.57;2.33;;;;;;;-3.56;88.50;62529.81;5055380;28;20343;-54
2024/01/10 05:57:52;;;;;;;4.60;2.77;;;;;;;-3.42;89.11;62547.38;5055261;28;20216;-54
2024/01/10 06:00:18;;;;;;;6.23;2.60;;;;;;;-3.60;90.25;62524.97;5038499;28;20196;-54
2024/01/10 06:02:45;;;;;;;3.53;2.23;;;;;;;-3.79;91.57;62504.47;5073084;28;20254;-53
2024/01/10 06:05:11;;;;;;;4.13;2.60;;;;;;;-3.38;90.63;62548.69;5073027;28;20268;-55
2024/01/10 06:07:38;;;;;;;9.73;3.53;;;;;;;-3.61;91.21;62521.94;5055080;28;20221;-55
2024/01/10 06:10:04;;;;;;;7.53;2.97;;;;;;;-3.87;90.65;62496.38;5073296;28;20182;-54
2024/01/10 06:12:30;;;;;;;5.47;2.43;;;;;;;-3.52;90.57;62533.59;5054863;28;20243;-53
2024/01/10 06:14:55;;;;;;;6.33;3.40;;;;;;;-3.28;88.14;62559.47;5072928;28;20186;-53
2024/01/10 06:17:21;;;;;;;7.20;3.20;;;;;;;-3.41;87.45;62542.97;5072676;28;20225;-52
2024/01/10 06:19:47;;;;;;;6.13;3.17;;;;;;;-3.22;86.90;62567.84;5054797;28;20192;-53
2024/01/10 06:22:13;;;;;;;5.33;3.17;;;;;;;-2.97;88.00;62592.34;5072965;28;20283;-53
2024/01/10 06:24:40;;;;;;;5.97;3.00;;;;;;;-3.15;86.58;62572.94;5072153;28;20610;-54
2024/01/10 06:27:07;;;;;;;6.53;2.73;;;;;;;-3.21;87.27;62567.00;5054516;28;20247;-52
2024/01/10 06:29:39;;;;;;;5.63;3.30;;;;;;;-3.71;88.72;62513.63;5071848;28;20185;-53
2024/01/10 06:32:06;;;;;;;4.80;3.23;;;;;;;-3.92;90.44;62490.47;5072694;28;20227;-54
2024/01/10 06:34:32;;;;;;;4.73;2.90;;;;;;;-3.89;92.53;62494.22;5071655;28;20233;-53
2024/01/10 06:36:58;;;;;;;7.77;4.20;;;;;;;-3.72;91.69;62512.56;5052142;28;20229;-53
2024/01/10 06:39:25;;;;;;;7.87;3.87;;;;;;;-4.00;91.91;62481.84;5069239;28;20187;-52
2024/01/10 06:41:51;;;;;;;5.20;3.53;;;;;;;-3.75;92.61;62508.78;5036686;28;20231;-53
2024/01/10 06:44:19;;;;;;;11.77;3.13;;;;;;;-3.19;91.33;62569.16;5072516;28;20241;-54
2024/01/10 06:46:45;;;;;;;6.53;3.70;;;;;;;-2.98;91.08;62588.81;5072694;28;20198;-54
2024/01/10 06:49:11;;;;;;;5.77;3.17;;;;;;;-2.84;90.61;62606.38;5072510;28;20590;-55
2024/01/10 06:51:37;;;;;;;7.77;3.23;;;;;;;-2.66;88.22;62625.78;5072643;28;20196;-55
2024/01/10 06:54:04;;;;;;;3.60;2.80;;;;;;;-2.61;86.59;62631.19;5054122;28;20185;-58
2024/01/10 06:56:33;;;;;;;7.57;3.20;;;;;;;-2.53;85.55;62639.84;5072424;28;20283;-53
2024/01/10 06:59:00;;;;;;;5.13;2.70;;;;;;;-2.47;84.18;62645.78;5072468;28;20327;-54
2024/01/10 07:01:26;;;;;;;5.37;3.13;;;;;;;-2.45;83.66;62646.00;5072043;28;20218;-54
2024/01/10 07:03:54;;;;;;;5.33;2.93;;;;;;;-2.29;82.17;62665.19;5072118;28;20191;-55
2024/01/10 07:06:20;;;;;;;7.40;3.03;;;;;;;-2.11;82.70;62684.63;5072055;28;20283;-55
2024/01/10 07:08:49;;;;;;;5.40;3.13;;;;;;;-1.96;78.27;62698.91;5072096;28;20248;-54
2024/01/10 07:11:15;;;;;;;6.40;3.10;;;;;;;-1.90;77.45;62707.84;5072334;28;20192;-52
2024/01/10 07:13:41;;;;;;;4.83;2.90;;;;;;;-1.86;77.34;62714.63;5072044;28;20261;-54
2024/01/10 07:16:08;;;;;;;7.33;4.03;;;;;;;-2.10;75.70;62683.78;5053917;28;20189;-53
2024/01/10 07:18:33;;;;;;;11.07;4.70;;;;;;;-2.31;77.46;62663.59;5071911;28;20204;-62
2024/01/10 07:21:00;;;;;;;11.60;4.50;;;;;;;-1.98;73.00;62699.22;5071890;28;20199;-54
2024/01/10 07:23:26;;;;;;;8.60;4.00;;;;;;;-2.02;71.75;62694.38;5053699;28;20216;-54
2024/01/10 07:25:52;;;;;;;8.43;3.80;;;;;;;-1.84;71.39;62713.81;5071638;28;20185;-57
2024/01/10 07:28:19;;;;;;;7.67;4.00;;;;;;;-1.68;73.15;62731.09;5071786;28;20219;-55
2024/01/10 07:30:45;;;;;;;7.70;3.63;;;;;;;-1.51;70.02;62748.91;5071854;28;20196;-53
2024/01/10 07:33:11;;;;;;;8.30;3.40;;;;;;;-1.29;69.31;62772.66;5071435;28;20219;-55
2024/01/10 07:35:38;;;;;;;6.87;3.13;;;;;;;-1.14;70.79;62789.44;5071558;28;20188;-52
2024/01/10 07:38:03;;;;;;;5.37;2.80;;;;;;;-0.89;67.88;62815.94;5071613;28;20268;-54
2024/01/10 07:40:29;;;;;;;4.37;2.57;;;;;;;-0.68;65.42;62841.09;5069981;28;20197;-52
2024/01/10 07:42:55;;;;;;;6.00;2.93;;;;;;;-1.08;66.22;62795.38;5052077;28;20220;-52
2024/01/10 07:45:21;;;;;;;3.80;2.83;;;;;;;-0.78;67.74;62827.28;5070330;28;20189;-54
2024/01/10 07:47:47;;;;;;;4.93;2.87;;;;;;;-0.53;64.03;62849.94;5070065;28;20238;-54
2024/01/10 07:50:14;;;;;;;7.07;3.50;;;;;;;-0.77;63.99;62825.91;5069717;28;20192;-53
2024/01/10 07:52:42;;;;;;;3.83;2.50;;;;;;;-0.96;64.35;62808.34;5053837;28;20259;-53
2024/01/10 07:55:08;;;;;;;4.83;3.00;;;;;;;-1.17;63.96;62785.66;5068831;28;20242;-54
2024/01/10 07:57:36;;;;;;;7.10;3.30;;;;;;;-1.32;64.94;62769.44;5069326;28;20233;-53
2024/01/10 08:00:03;;;;;;;4.57;2.90;;;;;;;-0.63;65.01;62841.03;5052132;28;20283;-54
2024/01/10 08:02:33;;;;;;;5.93;3.30;;;;;;;-0.20;64.86;62890.56;5053229;28;20228;-54
2024/01/10 08:05:05;;;;;;;6.13;3.70;;;;;;;0.06;64.76;62918.19;5071206;28;20181;-55
2024/01/10 08:07:36;;;;;;;10.53;3.83;;;;;;;0.12;61.14;62924.13;5070866;28;20227;-54
2024/01/10 08:10:04;;;;;;;7.80;3.80;;;;;;;0.37;59.95;62949.25;5071139;28;20185;-53
2024/01/10 08:12:30;;;;;;;6.53;3.20;;;;;;;1.10;58.53;63027.78;5071457;28;20223;-52
2024/01/10 08:14:55;;;;;;;8.33;3.97;;;;;;;1.18;55.87;63033.97;5071112;28;20259;-52
2024/01/10 08:17:20;;;;;;;11.17;4.00;;;;;;;1.30;56.95;63049.47;5071441;28;20208;-54
2024/01/10 08:19:46;;;;;;;7.10;4.07;;;;;;;1.26;56.06;63042.66;5070930;28;20709;-54
2024/01/10 08:22:13;;;;;;;5.90;3.53;;;;;;;1.50;56.96;63071.13;5070935;28;20649;-54
2024/01/10 08:24:38;;;;;;;9.00;4.17;;;;;;;1.97;54.45;63121.03;5053549;28;20200;-55
2024/01/10 08:27:04;;;;;;;17.77;5.70;;;;;;;1.54;54.69;63075.47;5071079;28;20223;-53
2024/01/10 08:29:31;;;;;;;6.27;3.60;;;;;;;0.36;55.65;62950.09;5070971;28;20193;-55
2024/01/10 08:31:57;;;;;;;7.43;3.80;;;;;;;1.52;54.37;63075.78;5070812;28;20299;-53
2024/01/10 08:34:23;;;;;;;8.00;3.40;;;;;;;2.05;52.00;63129.69;5070810;28;20405;-54
2024/01/10 08:36:52;;;;;;;7.27;3.20;;;;;;;0.98;53.20;63017.25;5053006;28;20687;-55
2024/01/10 08:39:21;;;;;;;6.13;2.87;;;;;;;-0.02;54.72;62911.97;5070864;28;20223;-57
2024/01/10 08:41:47;;;;;;;7.57;3.17;;;;;;;0.52;56.24;62967.44;5070774;28;20686;-54
2024/01/10 08:44:13;;;;;;;4.23;2.47;;;;;;;1.47;53.84;63067.34;5070696;28;20188;-54
2024/01/10 08:46:39;;;;;;;4.70;2.17;;;;;;;1.64;52.74;63088.25;5070794;28;20214;-56
2024/01/10 08:49:04;;;;;;;5.43;3.33;;;;;;;2.10;53.22;63137.63;5070578;28;20280;-55
2024/01/10 08:51:30;;;;;;;5.53;2.50;;;;;;;2.86;51.11;63217.06;5070208;28;20185;-55
2024/01/10 08:53:56;;;;;;;2.93;2.23;;;;;;;3.14;49.75;63248.00;5074040;28;20185;-55
2024/01/10 08:56:22;;;;;;;4.60;2.63;;;;;;;3.30;51.81;63267.88;5074386;28;20533;-55
2024/01/10 08:58:48;;;;;;;7.77;3.27;;;;;;;3.00;48.61;63232.81;5074073;28;20212;-56
2024/01/10 09:01:14;;;;;;;6.10;2.80;;;;;;;3.61;45.97;63302.97;5074223;28;20193;-54
2024/01/10 09:03:40;;;;;;;5.83;2.60;;;;;;;4.08;45.42;63349.06;5056129;28;20224;-55
2024/01/10 09:06:07;;;;;;;4.97;2.57;;;;;;;4.12;44.50;63353.97;5074265;28;20230;-54
2024/01/10 09:08:45;;;;;;;6.33;3.43;;;;;;;3.77;44.83;63317.88;5073965;28;20213;-55
2024/01/10 09:11:10;;;;;;;7.73;3.40;;;;;;;3.48;46.94;63286.34;5073909;28;20197;-56
2024/01/10 09:13:37;;;;;;;5.83;3.07;;;;;;;4.06;44.45;63347.44;5039584;28;20220;-56
2024/01/10 09:16:04;;;;;;;5.60;3.23;;;;;;;4.67;44.45;63410.19;5073658;28;20659;-54
2024/01/10 09:18:29;;;;;;;6.47;3.30;;;;;;;4.90;41.81;63438.25;5055767;28;20225;-54
2024/01/10 09:20:55;;;;;;;9.43;3.93;;;;;;;4.81;44.14;63428.47;5073796;28;20189;-55
2024/01/10 09:23:21;;;;;;;4.73;3.00;;;;;;;4.35;43.94;63378.44;5073704;28;20688;-56
2024/01/10 09:25:46;;;;;;;11.17;4.57;;;;;;;4.94;41.51;63445.13;5073767;28;20184;-54
2024/01/10 09:28:12;;;;;;;8.17;3.60;;;;;;;4.77;41.24;63424.09;5073731;28;20205;-55
2024/01/10 09:30:37;;;;;;;5.47;3.63;;;;;;;4.87;40.47;63431.94;5073517;28;20222;-54
2024/01/10 09:33:10;;;;;;;10.10;3.40;;;;;;;4.59;42.79;63401.50;5073573;28;20210;-58
2024/01/10 09:35:36;;;;;;;6.97;3.57;;;;;;;3.96;44.62;63338.53;5073386;28;20195;-54
2024/01/10 09:38:02;;;;;;;9.70;4.30;;;;;;;4.39;43.05;63382.22;5073495;28;20217;-54
2024/01/10 09:40:29;;;;;;;9.13;4.53;;;;;;;4.56;42.25;63400.72;5073493;28;20186;-55
2024/01/10 09:42:55;;;;;;;7.50;4.47;;;;;;;4.83;41.96;63433.13;5073115;28;20220;-55
2024/01/10 09:45:22;;;;;;;10.00;4.83;;;;;;;4.99;40.81;63450.00;5073493;28;20699;-56
2024/01/10 09:47:56;;;;;;;9.43;4.50;;;;;;;5.36;41.37;63490.28;5073739;28;20305;-55
2024/01/10 09:50:21;;;;;;;12.73;4.67;;;;;;;5.74;41.32;63531.66;5072942;28;20202;-55
2024/01/10 09:52:51;;;;;;;9.77;3.93;;;;;;;5.89;40.16;63544.97;5055375;28;20210;-55
2024/01/10 09:55:22;;;;;;;11.30;4.30;;;;;;;5.87;42.81;63540.84;5072533;28;20189;-55
2024/01/10 09:57:48;;;;;;;9.07;4.20;;;;;;;6.62;41.00;63623.97;5073164;28;20215;-54
2024/01/10 10:00:16;;;;;;;5.87;3.80;;;;;;;6.72;39.72;63635.44;5073285;28;20245;-54
2024/01/10 10:02:42;;;;;;;7.33;4.40;;;;;;;7.01;40.78;63663.44;5072772;28;20224;-55
2024/01/10 10:05:08;;;;;;;12.10;5.57;;;;;;;7.15;40.76;63681.75;5072964;28;20205;-54
2024/01/10 10:07:48;;;;;;;9.67;5.00;;;;;;;7.50;38.88;63716.88;5055157;28;20217;-54
2024/01/10 10:10:15;;;;;;;11.97;5.07;;;;;;;6.69;38.22;63634.66;5073073;28;20181;-55
2024/01/10 10:12:54;;;;;;;9.10;4.40;;;;;;;6.39;40.37;63599.44;5072667;28;20212;-56
2024/01/10 10:15:21;;;;;;;10.20;4.80;;;;;;;6.81;39.48;63646.66;5072938;28;20184;-55
2024/01/10 10:17:49;;;;;;;8.17;5.17;;;;;;;7.04;39.98;63669.78;5072761;28;20223;-54
2024/01/10 10:20:28;;;;;;;10.83;5.00;;;;;;;7.04;39.78;63669.22;5072948;28;20184;-56
2024/01/10 10:23:07;;;;;;;6.20;4.30;;;;;;;6.98;40.27;63660.16;5072836;28;20778;-55
2024/01/10 10:25:34;;;;;;;8.27;5.07;;;;;;;7.15;40.02;63683.72;5072773;28;20192;-55
2024/01/10 10:28:02;;;;;;;8.50;4.80;;;;;;;7.41;40.99;63710.13;5073009;28;20293;-54
2024/01/10 10:30:28;;;;;;;12.40;5.33;;;;;;;7.65;38.99;63738.28;5054702;28;20289;-55
2024/01/10 10:32:55;;;;;;;7.00;4.57;;;;;;;7.08;38.48;63671.06;5072433;28;20246;-58
2024/01/10 10:35:21;;;;;;;12.07;4.83;;;;;;;6.95;40.27;63662.44;5072584;28;20177;-55
2024/01/10 10:37:52;;;;;;;9.63;5.23;;;;;;;7.39;40.54;63710.44;5072479;28;20262;-55
2024/01/10 10:40:19;;;;;;;9.93;4.63;;;;;;;7.53;40.31;63720.16;5079693;22;20301;-54
2024/01/10 10:42:49;;;;;;;11.83;5.60;;;;;;;7.59;40.26;63729.75;5071380;28;20216;-54
2024/01/10 10:45:17;;;;;;;10.50;6.00;;;;;;;7.39;40.60;63707.94;5053179;28;20254;-53
2024/01/10 10:47:45;;;;;;;9.40;5.30;;;;;;;7.74;40.51;63747.56;5072055;28;20292;-55
2024/01/10 10:50:22;;;;;;;7.97;5.17;;;;;;;7.58;39.96;63726.16;5072147;28;20219;-54
2024/01/10 10:52:50;;;;;;;9.13;5.57;;;;;;;7.53;39.45;63725.19;5072128;28;20200;-54
2024/01/10 10:55:18;;;;;;;8.53;5.13;;;;;;;7.42;40.14;63713.72;5070805;28;20318;-54
2024/01/10 10:57:48;;;;;;;9.27;5.53;;;;;;;7.04;40.75;63669.78;5072177;28;20199;-59
2024/01/10 11:00:15;;;;;;;11.10;5.70;;;;;;;6.95;39.89;63659.41;5072104;28;20196;-55
2024/01/10 11:02:43;;;;;;;11.10;6.23;;;;;;;7.16;40.94;63682.84;5054027;28;20678;-59
2024/01/10 11:05:09;;;;;;;12.60;6.23;;;;;;;7.61;41.60;63728.91;5071983;28;20204;-53
2024/01/10 11:07:36;;;;;;;11.93;5.53;;;;;;;7.68;39.91;63738.47;5072072;28;20597;-55
2024/01/10 11:10:04;;;;;;;17.00;6.57;;;;;;;7.47;39.79;63713.63;5072405;28;20638;-53
2024/01/10 11:12:54;;;;;;;11.10;6.33;;;;;;;7.69;40.85;63737.63;5072033;28;20216;-54
2024/01/10 11:15:28;;;;;;;11.23;6.07;;;;;;;7.50;39.72;63716.88;5070774;28;20201;-55
2024/01/10 11:18:06;;;;;;;10.27;6.70;;;;;;;6.40;40.03;63603.03;5071976;28;20204;-55
2024/01/10 11:20:47;;;;;;;10.93;6.17;;;;;;;6.42;40.15;63602.72;5071978;28;20184;-55
2024/01/10 11:23:44;;;;;;;12.43;6.40;;;;;;;6.67;43.46;63629.41;5071727;28;20216;-55
2024/01/10 11:26:10;;;;;;;14.33;6.47;;;;;;;6.92;45.66;63654.19;5071547;28;20185;-55
2024/01/10 11:28:37;;;;;;;14.07;6.07;;;;;;;6.98;41.85;63662.69;5053479;28;20247;-54
2024/01/10 11:31:03;;;;;;;10.57;6.30;;;;;;;7.07;41.26;63675.00;5071329;28;20236;-55
2024/01/10 11:33:41;;;;;;;14.37;8.13;;;;;;;6.54;41.24;63615.81;5071783;28;20295;-54